sensor_id;sensor_type;location;lat;lon;timestamp;P1;durP1;ratioP1;P2;durP2;ratioP2
55603;SDS011;41468;48.838;9.330;2024-01-30T00:00:25;11.13;;;6.00;;
55603;SDS011;41468;48.838;9.330;2024-01-30T00:02:51;6.87;;;6.00;;
55603;SDS011;41468;48.838;9.330;2024-01-30T00:05:18;6.90;;;5.87;;
55603;SDS011;41468;48.838;9.330;2024-01-30T00:07:45;9.77;;;6.00;;
55603;SDS011;41468;48.838;9.330;2024-01-30T00:10:11;7.07;;;5.30;;
55603;SDS011;41468;48.838;9.330;2024-01-30T00:12:38;8.83;;;5.90;;
55603;SDS011;41468;48.838;9.330;2024-01-30T00:15:05;6.47;;;5.33;;
55603;SDS011;41468;48.838;9.330;2024-01-30T00:17:35;7.47;;;5.50;;
55603;SDS011;41468;48.838;9.330;2024-01-30T00:20:03;8.60;;;5.60;;
55603;SDS011;41468;48.838;9.330;2024-01-30T00:22:32;6.57;;;5.03;;
55603;SDS011;41468;48.838;9.330;2024-01-30T00:24:59;6.00;;;5.27;;
55603;SDS011;41468;48.838;9.330;2024-01-30T00:27:26;7.80;;;5.50;;
55603;SDS011;41468;48.838;9.330;2024-01-30T00:29:54;6.13;;;4.93;;
55603;SDS011;41468;48.838;9.330;2024-01-30T00:32:21;11.13;;;5.47;;
55603;SDS011;41468;48.838;9.330;2024-01-30T00:34:49;6.83;;;5.20;;
55603;SDS011;41468;48.838;9.330;2024-01-30T00:37:16;8.93;;;5.73;;
55603;SDS011;41468;48.838;9.330;2024-01-30T00:39:43;8.77;;;5.40;;
55603;SDS011;41468;48.838;9.330;2024-01-30T00:42:10;8.87;;;5.57;;
55603;SDS011;41468;48.838;9.330;2024-01-30T00:44:36;7.13;;;5.40;;
55603;SDS011;41468;48.838;9.330;2024-01-30T00:47:05;10.53;;;5.50;;
55603;SDS011;41468;48.838;9.330;2024-01-30T00:49:32;7.67;;;5.50;;
55603;SDS011;41468;48.838;9.330;2024-01-30T00:51:59;7.73;;;5.37;;
55603;SDS011;41468;48.838;9.330;2024-01-30T00:54:27;6.57;;;5.60;;
55603;SDS011;41468;48.838;9.330;2024-01-30T00:56:54;9.23;;;5.80;;
55603;SDS011;41468;48.838;9.330;2024-01-30T00:59:20;7.10;;;5.00;;
55603;SDS011;41468;48.838;9.330;2024-01-30T01:01:47;6.37;;;5.00;;
55603;SDS011;41468;48.838;9.330;2024-01-30T01:04:14;9.37;;;5.13;;
55603;SDS011;41468;48.838;9.330;2024-01-30T01:06:41;8.33;;;4.83;;
55603;SDS011;41468;48.838;9.330;2024-01-30T01:09:11;7.23;;;5.47;;
55603;SDS011;41468;48.838;9.330;2024-01-30T01:11:38;5.83;;;4.77;;
55603;SDS011;41468;48.838;9.330;2024-01-30T01:14:06;7.17;;;5.23;;
55603;SDS011;41468;48.838;9.330;2024-01-30T01:16:33;6.23;;;5.10;;
55603;SDS011;41468;48.838;9.330;2024-01-30T01:19:00;7.90;;;5.30;;
55603;SDS011;41468;48.838;9.330;2024-01-30T01:21:27;6.43;;;5.37;;
55603;SDS011;41468;48.838;9.330;2024-01-30T01:23:54;7.00;;;5.37;;
55603;SDS011;41468;48.838;9.330;2024-01-30T01:26:20;6.70;;;5.43;;
55603;SDS011;41468;48.838;9.330;2024-01-30T01:28:48;6.93;;;5.07;;
55603;SDS011;41468;48.838;9.330;2024-01-30T01:31:15;8.67;;;5.43;;
55603;SDS011;41468;48.838;9.330;2024-01-30T01:33:41;6.50;;;5.30;;
55603;SDS011;41468;48.838;9.330;2024-01-30T01:36:09;6.03;;;5.43;;
55603;SDS011;41468;48.838;9.330;2024-01-30T01:38:36;7.23;;;5.43;;
55603;SDS011;41468;48.838;9.330;2024-01-30T01:41:02;7.57;;;4.90;;
55603;SDS011;41468;48.838;9.330;2024-01-30T01:43:29;8.07;;;4.93;;
55603;SDS011;41468;48.838;9.330;2024-01-30T01:45:56;9.20;;;4.97;;
55603;SDS011;41468;48.838;9.330;2024-01-30T01:48:23;6.60;;;5.40;;
55603;SDS011;41468;48.838;9.330;2024-01-30T01:50:51;7.10;;;5.20;;
55603;SDS011;41468;48.838;9.330;2024-01-30T01:53:19;7.37;;;5.50;;
55603;SDS011;41468;48.838;9.330;2024-01-30T01:55:45;8.00;;;5.50;;
55603;SDS011;41468;48.838;9.330;2024-01-30T01:58:14;6.63;;;4.93;;
55603;SDS011;41468;48.838;9.330;2024-01-30T02:00:41;7.77;;;5.23;;
55603;SDS011;41468;48.838;9.330;2024-01-30T02:03:09;6.30;;;4.80;;
55603;SDS011;41468;48.838;9.330;2024-01-30T02:05:38;5.57;;;4.60;;
55603;SDS011;41468;48.838;9.330;2024-01-30T02:08:06;6.33;;;4.70;;
55603;SDS011;41468;48.838;9.330;2024-01-30T02:10:33;8.40;;;5.43;;
55603;SDS011;41468;48.838;9.330;2024-01-30T02:13:00;7.37;;;5.13;;
55603;SDS011;41468;48.838;9.330;2024-01-30T02:15:28;6.50;;;5.33;;
55603;SDS011;41468;48.838;9.330;2024-01-30T02:17:55;6.33;;;5.03;;
55603;SDS011;41468;48.838;9.330;2024-01-30T02:20:23;4.90;;;4.40;;
55603;SDS011;41468;48.838;9.330;2024-01-30T02:22:52;6.93;;;4.90;;
55603;SDS011;41468;48.838;9.330;2024-01-30T02:25:20;5.83;;;4.40;;
55603;SDS011;41468;48.838;9.330;2024-01-30T02:27:57;7.30;;;4.40;;
55603;SDS011;41468;48.838;9.330;2024-01-30T02:30:23;5.57;;;4.63;;
55603;SDS011;41468;48.838;9.330;2024-01-30T02:32:50;8.67;;;4.37;;
55603;SDS011;41468;48.838;9.330;2024-01-30T02:35:17;5.60;;;5.03;;
55603;SDS011;41468;48.838;9.330;2024-01-30T02:37:44;6.73;;;4.97;;
55603;SDS011;41468;48.838;9.330;2024-01-30T02:40:11;5.30;;;4.20;;
55603;SDS011;41468;48.838;9.330;2024-01-30T02:42:37;6.77;;;4.53;;
55603;SDS011;41468;48.838;9.330;2024-01-30T02:45:05;7.03;;;4.07;;
55603;SDS011;41468;48.838;9.330;2024-01-30T02:47:32;5.53;;;4.47;;
55603;SDS011;41468;48.838;9.330;2024-01-30T02:49:59;5.43;;;4.90;;
55603;SDS011;41468;48.838;9.330;2024-01-30T02:52:31;7.00;;;4.60;;
55603;SDS011;41468;48.838;9.330;2024-01-30T02:54:58;5.13;;;4.63;;
55603;SDS011;41468;48.838;9.330;2024-01-30T02:57:24;6.87;;;4.70;;
55603;SDS011;41468;48.838;9.330;2024-01-30T02:59:51;5.77;;;4.90;;
55603;SDS011;41468;48.838;9.330;2024-01-30T03:02:18;6.10;;;4.47;;
55603;SDS011;41468;48.838;9.330;2024-01-30T03:04:45;5.47;;;4.30;;
55603;SDS011;41468;48.838;9.330;2024-01-30T03:07:12;9.67;;;4.70;;
55603;SDS011;41468;48.838;9.330;2024-01-30T03:09:38;5.73;;;4.57;;
55603;SDS011;41468;48.838;9.330;2024-01-30T03:12:09;6.60;;;4.90;;
55603;SDS011;41468;48.838;9.330;2024-01-30T03:14:36;6.43;;;4.53;;
55603;SDS011;41468;48.838;9.330;2024-01-30T03:17:04;5.23;;;4.30;;
55603;SDS011;41468;48.838;9.330;2024-01-30T03:19:30;6.10;;;4.53;;
55603;SDS011;41468;48.838;9.330;2024-01-30T03:21:57;5.47;;;4.30;;
55603;SDS011;41468;48.838;9.330;2024-01-30T03:24:24;7.70;;;4.57;;
55603;SDS011;41468;48.838;9.330;2024-01-30T03:26:51;4.80;;;4.33;;
55603;SDS011;41468;48.838;9.330;2024-01-30T03:29:18;6.57;;;4.83;;
55603;SDS011;41468;48.838;9.330;2024-01-30T03:31:45;6.40;;;4.63;;
55603;SDS011;41468;48.838;9.330;2024-01-30T03:34:12;7.03;;;4.77;;
55603;SDS011;41468;48.838;9.330;2024-01-30T03:36:39;4.90;;;4.20;;
55603;SDS011;41468;48.838;9.330;2024-01-30T03:39:06;4.27;;;3.77;;
55603;SDS011;41468;48.838;9.330;2024-01-30T03:41:33;10.80;;;4.30;;
55603;SDS011;41468;48.838;9.330;2024-01-30T03:44:00;6.27;;;4.30;;
55603;SDS011;41468;48.838;9.330;2024-01-30T03:46:26;4.67;;;4.20;;
55603;SDS011;41468;48.838;9.330;2024-01-30T03:48:53;6.50;;;4.53;;
55603;SDS011;41468;48.838;9.330;2024-01-30T03:51:20;5.80;;;4.40;;
55603;SDS011;41468;48.838;9.330;2024-01-30T03:53:47;8.17;;;4.93;;
55603;SDS011;41468;48.838;9.330;2024-01-30T03:56:14;6.13;;;4.53;;
55603;SDS011;41468;48.838;9.330;2024-01-30T03:58:40;6.00;;;5.40;;
55603;SDS011;41468;48.838;9.330;2024-01-30T04:01:07;6.33;;;4.80;;
55603;SDS011;41468;48.838;9.330;2024-01-30T04:03:39;6.17;;;4.20;;
55603;SDS011;41468;48.838;9.330;2024-01-30T04:06:06;5.20;;;4.30;;
55603;SDS011;41468;48.838;9.330;2024-01-30T04:08:33;7.33;;;4.30;;
55603;SDS011;41468;48.838;9.330;2024-01-30T04:11:03;4.90;;;4.40;;
55603;SDS011;41468;48.838;9.330;2024-01-30T04:13:33;5.90;;;4.60;;
55603;SDS011;41468;48.838;9.330;2024-01-30T04:16:00;6.67;;;4.67;;
55603;SDS011;41468;48.838;9.330;2024-01-30T04:18:30;6.07;;;4.83;;
55603;SDS011;41468;48.838;9.330;2024-01-30T04:20:57;5.57;;;4.37;;
55603;SDS011;41468;48.838;9.330;2024-01-30T04:23:23;6.80;;;4.77;;
55603;SDS011;41468;48.838;9.330;2024-01-30T04:25:50;5.73;;;4.53;;
55603;SDS011;41468;48.838;9.330;2024-01-30T04:28:17;5.97;;;4.87;;
55603;SDS011;41468;48.838;9.330;2024-01-30T04:30:44;5.37;;;4.80;;
55603;SDS011;41468;48.838;9.330;2024-01-30T04:33:10;5.67;;;4.50;;
55603;SDS011;41468;48.838;9.330;2024-01-30T04:35:38;6.47;;;4.30;;
55603;SDS011;41468;48.838;9.330;2024-01-30T04:38:04;6.93;;;4.53;;
55603;SDS011;41468;48.838;9.330;2024-01-30T04:40:31;7.03;;;5.13;;
55603;SDS011;41468;48.838;9.330;2024-01-30T04:43:09;5.70;;;4.40;;
55603;SDS011;41468;48.838;9.330;2024-01-30T04:45:36;5.20;;;4.70;;
55603;SDS011;41468;48.838;9.330;2024-01-30T04:48:03;4.57;;;3.93;;
55603;SDS011;41468;48.838;9.330;2024-01-30T04:50:30;5.87;;;4.73;;
55603;SDS011;41468;48.838;9.330;2024-01-30T04:52:56;9.60;;;5.30;;
55603;SDS011;41468;48.838;9.330;2024-01-30T04:55:23;4.93;;;4.43;;
55603;SDS011;41468;48.838;9.330;2024-01-30T04:57:50;5.80;;;4.30;;
55603;SDS011;41468;48.838;9.330;2024-01-30T05:00:17;5.80;;;4.63;;
55603;SDS011;41468;48.838;9.330;2024-01-30T05:02:43;7.50;;;4.97;;
55603;SDS011;41468;48.838;9.330;2024-01-30T05:05:10;6.13;;;4.57;;
55603;SDS011;41468;48.838;9.330;2024-01-30T05:07:38;5.97;;;4.60;;
55603;SDS011;41468;48.838;9.330;2024-01-30T05:10:05;6.47;;;4.67;;
55603;SDS011;41468;48.838;9.330;2024-01-30T05:12:32;7.00;;;4.70;;
55603;SDS011;41468;48.838;9.330;2024-01-30T05:14:59;7.70;;;5.30;;
55603;SDS011;41468;48.838;9.330;2024-01-30T05:17:26;6.33;;;4.80;;
55603;SDS011;41468;48.838;9.330;2024-01-30T05:19:53;5.33;;;4.33;;
55603;SDS011;41468;48.838;9.330;2024-01-30T05:22:19;6.53;;;5.07;;
55603;SDS011;41468;48.838;9.330;2024-01-30T05:24:46;6.93;;;4.57;;
55603;SDS011;41468;48.838;9.330;2024-01-30T05:27:13;5.97;;;4.53;;
55603;SDS011;41468;48.838;9.330;2024-01-30T05:29:40;5.83;;;4.53;;
55603;SDS011;41468;48.838;9.330;2024-01-30T05:32:10;5.13;;;4.30;;
55603;SDS011;41468;48.838;9.330;2024-01-30T05:34:37;5.43;;;4.20;;
55603;SDS011;41468;48.838;9.330;2024-01-30T05:37:04;4.97;;;4.47;;
55603;SDS011;41468;48.838;9.330;2024-01-30T05:39:31;6.67;;;4.70;;
55603;SDS011;41468;48.838;9.330;2024-01-30T05:41:59;5.57;;;4.50;;
55603;SDS011;41468;48.838;9.330;2024-01-30T05:44:26;6.27;;;4.50;;
55603;SDS011;41468;48.838;9.330;2024-01-30T05:46:57;5.17;;;4.60;;
55603;SDS011;41468;48.838;9.330;2024-01-30T05:49:24;4.57;;;4.17;;
55603;SDS011;41468;48.838;9.330;2024-01-30T05:51:51;5.57;;;4.40;;
55603;SDS011;41468;48.838;9.330;2024-01-30T05:54:18;6.13;;;4.33;;
55603;SDS011;41468;48.838;9.330;2024-01-30T05:56:56;5.63;;;3.90;;
55603;SDS011;41468;48.838;9.330;2024-01-30T05:59:23;7.20;;;4.30;;
55603;SDS011;41468;48.838;9.330;2024-01-30T06:01:50;6.37;;;3.77;;
55603;SDS011;41468;48.838;9.330;2024-01-30T06:04:16;4.87;;;4.20;;
55603;SDS011;41468;48.838;9.330;2024-01-30T06:06:43;5.30;;;4.80;;
55603;SDS011;41468;48.838;9.330;2024-01-30T06:09:10;5.17;;;4.53;;
55603;SDS011;41468;48.838;9.330;2024-01-30T06:11:39;5.43;;;4.63;;
55603;SDS011;41468;48.838;9.330;2024-01-30T06:14:06;6.13;;;4.43;;
55603;SDS011;41468;48.838;9.330;2024-01-30T06:16:33;5.07;;;4.30;;
55603;SDS011;41468;48.838;9.330;2024-01-30T06:19:00;5.40;;;4.27;;
55603;SDS011;41468;48.838;9.330;2024-01-30T06:21:27;6.93;;;4.43;;
55603;SDS011;41468;48.838;9.330;2024-01-30T06:23:53;8.70;;;5.30;;
55603;SDS011;41468;48.838;9.330;2024-01-30T06:26:20;8.50;;;5.23;;
55603;SDS011;41468;48.838;9.330;2024-01-30T06:28:47;10.83;;;5.77;;
55603;SDS011;41468;48.838;9.330;2024-01-30T06:31:14;10.40;;;6.20;;
55603;SDS011;41468;48.838;9.330;2024-01-30T06:33:41;11.73;;;6.63;;
55603;SDS011;41468;48.838;9.330;2024-01-30T06:36:09;14.53;;;6.53;;
55603;SDS011;41468;48.838;9.330;2024-01-30T06:38:35;11.10;;;6.37;;
55603;SDS011;41468;48.838;9.330;2024-01-30T06:41:02;15.13;;;8.87;;
55603;SDS011;41468;48.838;9.330;2024-01-30T06:43:29;14.03;;;9.40;;
55603;SDS011;41468;48.838;9.330;2024-01-30T06:45:56;10.47;;;5.60;;
55603;SDS011;41468;48.838;9.330;2024-01-30T06:48:22;10.37;;;7.07;;
55603;SDS011;41468;48.838;9.330;2024-01-30T06:50:49;9.37;;;5.73;;
55603;SDS011;41468;48.838;9.330;2024-01-30T06:53:17;7.87;;;4.93;;
55603;SDS011;41468;48.838;9.330;2024-01-30T06:55:43;9.30;;;5.10;;
55603;SDS011;41468;48.838;9.330;2024-01-30T06:58:10;8.30;;;4.60;;
55603;SDS011;41468;48.838;9.330;2024-01-30T07:00:37;7.10;;;4.83;;
55603;SDS011;41468;48.838;9.330;2024-01-30T07:03:04;5.70;;;4.40;;
55603;SDS011;41468;48.838;9.330;2024-01-30T07:05:31;10.07;;;4.63;;
55603;SDS011;41468;48.838;9.330;2024-01-30T07:07:58;6.17;;;4.60;;
55603;SDS011;41468;48.838;9.330;2024-01-30T07:10:25;7.53;;;4.87;;
55603;SDS011;41468;48.838;9.330;2024-01-30T07:12:52;8.07;;;4.80;;
55603;SDS011;41468;48.838;9.330;2024-01-30T07:15:19;5.40;;;4.60;;
55603;SDS011;41468;48.838;9.330;2024-01-30T07:17:46;13.97;;;9.93;;
55603;SDS011;41468;48.838;9.330;2024-01-30T07:20:13;6.63;;;5.83;;
55603;SDS011;41468;48.838;9.330;2024-01-30T07:22:43;7.43;;;5.40;;
55603;SDS011;41468;48.838;9.330;2024-01-30T07:25:10;6.63;;;5.10;;
55603;SDS011;41468;48.838;9.330;2024-01-30T07:27:37;7.27;;;4.77;;
55603;SDS011;41468;48.838;9.330;2024-01-30T07:30:04;7.20;;;5.20;;
55603;SDS011;41468;48.838;9.330;2024-01-30T07:32:32;5.40;;;4.50;;
55603;SDS011;41468;48.838;9.330;2024-01-30T07:34:59;9.23;;;4.80;;
55603;SDS011;41468;48.838;9.330;2024-01-30T07:37:34;8.10;;;4.60;;
55603;SDS011;41468;48.838;9.330;2024-01-30T07:40:02;6.03;;;4.83;;
55603;SDS011;41468;48.838;9.330;2024-01-30T07:42:30;7.53;;;5.23;;
55603;SDS011;41468;48.838;9.330;2024-01-30T07:44:57;7.20;;;5.00;;
55603;SDS011;41468;48.838;9.330;2024-01-30T07:47:24;7.63;;;4.83;;
55603;SDS011;41468;48.838;9.330;2024-01-30T07:49:50;6.70;;;4.83;;
55603;SDS011;41468;48.838;9.330;2024-01-30T07:52:18;8.33;;;5.57;;
55603;SDS011;41468;48.838;9.330;2024-01-30T07:54:45;6.63;;;5.00;;
55603;SDS011;41468;48.838;9.330;2024-01-30T07:57:12;9.77;;;5.67;;
55603;SDS011;41468;48.838;9.330;2024-01-30T07:59:38;6.80;;;5.33;;
55603;SDS011;41468;48.838;9.330;2024-01-30T08:02:05;7.13;;;4.83;;
55603;SDS011;41468;48.838;9.330;2024-01-30T08:04:32;6.43;;;5.40;;
55603;SDS011;41468;48.838;9.330;2024-01-30T08:06:59;6.37;;;5.27;;
55603;SDS011;41468;48.838;9.330;2024-01-30T08:09:26;6.03;;;5.43;;
55603;SDS011;41468;48.838;9.330;2024-01-30T08:11:53;6.40;;;5.17;;
55603;SDS011;41468;48.838;9.330;2024-01-30T08:14:19;6.47;;;5.20;;
55603;SDS011;41468;48.838;9.330;2024-01-30T08:16:46;6.27;;;5.03;;
55603;SDS011;41468;48.838;9.330;2024-01-30T08:19:13;7.70;;;5.27;;
55603;SDS011;41468;48.838;9.330;2024-01-30T08:21:41;6.13;;;5.00;;
55603;SDS011;41468;48.838;9.330;2024-01-30T08:24:08;6.40;;;5.20;;
55603;SDS011;41468;48.838;9.330;2024-01-30T08:26:35;6.07;;;5.30;;
55603;SDS011;41468;48.838;9.330;2024-01-30T08:29:02;7.07;;;5.00;;
55603;SDS011;41468;48.838;9.330;2024-01-30T08:31:29;7.77;;;5.13;;
55603;SDS011;41468;48.838;9.330;2024-01-30T08:33:56;6.93;;;4.93;;
55603;SDS011;41468;48.838;9.330;2024-01-30T08:36:23;8.73;;;5.67;;
55603;SDS011;41468;48.838;9.330;2024-01-30T08:38:54;6.43;;;5.07;;
55603;SDS011;41468;48.838;9.330;2024-01-30T08:41:27;6.13;;;5.10;;
55603;SDS011;41468;48.838;9.330;2024-01-30T08:43:53;8.30;;;5.87;;
55603;SDS011;41468;48.838;9.330;2024-01-30T08:46:20;7.97;;;4.90;;
55603;SDS011;41468;48.838;9.330;2024-01-30T08:48:47;7.77;;;4.70;;
55603;SDS011;41468;48.838;9.330;2024-01-30T08:51:14;5.50;;;4.23;;
55603;SDS011;41468;48.838;9.330;2024-01-30T08:53:42;5.97;;;4.43;;
55603;SDS011;41468;48.838;9.330;2024-01-30T08:56:15;5.47;;;4.77;;
55603;SDS011;41468;48.838;9.330;2024-01-30T08:58:43;5.93;;;4.70;;
55603;SDS011;41468;48.838;9.330;2024-01-30T09:01:09;7.57;;;4.67;;
55603;SDS011;41468;48.838;9.330;2024-01-30T09:03:36;5.10;;;4.37;;
55603;SDS011;41468;48.838;9.330;2024-01-30T09:06:09;6.07;;;4.60;;
55603;SDS011;41468;48.838;9.330;2024-01-30T09:08:41;7.43;;;4.50;;
55603;SDS011;41468;48.838;9.330;2024-01-30T09:11:14;6.60;;;4.63;;
55603;SDS011;41468;48.838;9.330;2024-01-30T09:13:41;7.27;;;4.60;;
55603;SDS011;41468;48.838;9.330;2024-01-30T09:16:08;5.83;;;4.87;;
55603;SDS011;41468;48.838;9.330;2024-01-30T09:18:35;6.97;;;5.27;;
55603;SDS011;41468;48.838;9.330;2024-01-30T09:21:02;9.57;;;5.50;;
55603;SDS011;41468;48.838;9.330;2024-01-30T09:23:29;8.33;;;5.80;;
55603;SDS011;41468;48.838;9.330;2024-01-30T09:25:56;9.57;;;6.20;;
55603;SDS011;41468;48.838;9.330;2024-01-30T09:28:23;8.63;;;5.80;;
55603;SDS011;41468;48.838;9.330;2024-01-30T09:30:53;9.57;;;6.07;;
55603;SDS011;41468;48.838;9.330;2024-01-30T09:33:19;7.33;;;5.37;;
55603;SDS011;41468;48.838;9.330;2024-01-30T09:35:46;7.57;;;5.33;;
55603;SDS011;41468;48.838;9.330;2024-01-30T09:38:13;7.17;;;5.70;;
55603;SDS011;41468;48.838;9.330;2024-01-30T09:40:40;7.03;;;5.70;;
55603;SDS011;41468;48.838;9.330;2024-01-30T09:43:08;6.73;;;5.43;;
55603;SDS011;41468;48.838;9.330;2024-01-30T09:45:40;7.83;;;5.57;;
55603;SDS011;41468;48.838;9.330;2024-01-30T09:48:08;9.20;;;5.90;;
55603;SDS011;41468;48.838;9.330;2024-01-30T09:50:35;6.03;;;5.00;;
55603;SDS011;41468;48.838;9.330;2024-01-30T09:53:03;8.23;;;5.33;;
55603;SDS011;41468;48.838;9.330;2024-01-30T09:55:31;8.83;;;5.63;;
55603;SDS011;41468;48.838;9.330;2024-01-30T09:57:59;5.70;;;4.63;;
55603;SDS011;41468;48.838;9.330;2024-01-30T10:00:26;6.60;;;5.07;;
55603;SDS011;41468;48.838;9.330;2024-01-30T10:02:54;7.43;;;4.90;;
55603;SDS011;41468;48.838;9.330;2024-01-30T10:05:20;6.63;;;4.73;;
55603;SDS011;41468;48.838;9.330;2024-01-30T10:07:53;5.40;;;4.87;;
55603;SDS011;41468;48.838;9.330;2024-01-30T10:10:22;5.47;;;4.67;;
55603;SDS011;41468;48.838;9.330;2024-01-30T10:13:05;9.73;;;5.20;;
55603;SDS011;41468;48.838;9.330;2024-01-30T10:15:31;7.43;;;4.80;;
55603;SDS011;41468;48.838;9.330;2024-01-30T10:17:58;5.73;;;5.23;;
55603;SDS011;41468;48.838;9.330;2024-01-30T10:20:25;4.97;;;4.40;;
55603;SDS011;41468;48.838;9.330;2024-01-30T10:22:52;5.47;;;4.63;;
55603;SDS011;41468;48.838;9.330;2024-01-30T10:25:23;5.10;;;4.60;;
55603;SDS011;41468;48.838;9.330;2024-01-30T10:27:53;9.13;;;4.53;;
55603;SDS011;41468;48.838;9.330;2024-01-30T10:30:24;4.80;;;4.30;;
55603;SDS011;41468;48.838;9.330;2024-01-30T10:32:51;7.10;;;5.10;;
55603;SDS011;41468;48.838;9.330;2024-01-30T10:35:18;5.97;;;4.90;;
55603;SDS011;41468;48.838;9.330;2024-01-30T10:37:48;4.70;;;4.30;;
55603;SDS011;41468;48.838;9.330;2024-01-30T10:40:15;4.73;;;4.33;;
55603;SDS011;41468;48.838;9.330;2024-01-30T10:42:43;5.87;;;4.70;;
55603;SDS011;41468;48.838;9.330;2024-01-30T10:45:13;5.63;;;4.60;;
55603;SDS011;41468;48.838;9.330;2024-01-30T10:47:44;7.80;;;4.63;;
55603;SDS011;41468;48.838;9.330;2024-01-30T10:50:16;6.30;;;4.30;;
55603;SDS011;41468;48.838;9.330;2024-01-30T10:52:43;5.83;;;4.80;;
55603;SDS011;41468;48.838;9.330;2024-01-30T10:55:11;5.97;;;4.70;;
55603;SDS011;41468;48.838;9.330;2024-01-30T10:57:38;10.83;;;4.97;;
55603;SDS011;41468;48.838;9.330;2024-01-30T11:00:08;5.57;;;4.80;;
55603;SDS011;41468;48.838;9.330;2024-01-30T11:02:44;9.57;;;4.77;;
55603;SDS011;41468;48.838;9.330;2024-01-30T11:05:12;6.77;;;5.20;;
55603;SDS011;41468;48.838;9.330;2024-01-30T11:07:39;6.20;;;4.30;;
55603;SDS011;41468;48.838;9.330;2024-01-30T11:10:11;6.93;;;4.83;;
55603;SDS011;41468;48.838;9.330;2024-01-30T11:12:42;6.27;;;5.07;;
55603;SDS011;41468;48.838;9.330;2024-01-30T11:15:12;7.37;;;4.77;;
55603;SDS011;41468;48.838;9.330;2024-01-30T11:20:11;7.50;;;4.93;;
55603;SDS011;41468;48.838;9.330;2024-01-30T11:22:47;7.97;;;4.27;;
55603;SDS011;41468;48.838;9.330;2024-01-30T11:25:20;5.13;;;4.10;;
55603;SDS011;41468;48.838;9.330;2024-01-30T11:27:51;7.57;;;3.87;;
55603;SDS011;41468;48.838;9.330;2024-01-30T11:33:02;5.17;;;3.90;;
55603;SDS011;41468;48.838;9.330;2024-01-30T11:38:13;4.30;;;3.90;;
55603;SDS011;41468;48.838;9.330;2024-01-30T11:40:41;5.07;;;4.57;;
55603;SDS011;41468;48.838;9.330;2024-01-30T11:43:08;6.47;;;4.67;;
55603;SDS011;41468;48.838;9.330;2024-01-30T11:45:36;9.53;;;6.23;;
55603;SDS011;41468;48.838;9.330;2024-01-30T11:48:03;6.97;;;5.40;;
55603;SDS011;41468;48.838;9.330;2024-01-30T11:50:34;7.10;;;5.27;;
55603;SDS011;41468;48.838;9.330;2024-01-30T11:53:02;8.93;;;5.50;;
55603;SDS011;41468;48.838;9.330;2024-01-30T11:55:29;7.27;;;6.43;;
55603;SDS011;41468;48.838;9.330;2024-01-30T11:58:00;7.07;;;5.13;;
55603;SDS011;41468;48.838;9.330;2024-01-30T12:00:32;8.23;;;5.97;;
55603;SDS011;41468;48.838;9.330;2024-01-30T12:03:01;8.63;;;4.90;;
55603;SDS011;41468;48.838;9.330;2024-01-30T12:05:28;8.93;;;5.47;;
55603;SDS011;41468;48.838;9.330;2024-01-30T12:07:56;8.63;;;4.50;;
55603;SDS011;41468;48.838;9.330;2024-01-30T12:10:27;6.33;;;4.50;;
55603;SDS011;41468;48.838;9.330;2024-01-30T12:12:54;5.07;;;4.13;;
55603;SDS011;41468;48.838;9.330;2024-01-30T12:15:22;7.70;;;4.60;;
55603;SDS011;41468;48.838;9.330;2024-01-30T12:17:49;5.23;;;3.93;;
55603;SDS011;41468;48.838;9.330;2024-01-30T12:20:19;5.23;;;4.37;;
55603;SDS011;41468;48.838;9.330;2024-01-30T12:22:49;5.93;;;4.23;;
55603;SDS011;41468;48.838;9.330;2024-01-30T12:25:17;7.70;;;4.70;;
55603;SDS011;41468;48.838;9.330;2024-01-30T12:27:46;5.87;;;4.07;;
55603;SDS011;41468;48.838;9.330;2024-01-30T12:30:17;9.33;;;4.13;;
55603;SDS011;41468;48.838;9.330;2024-01-30T12:32:46;6.53;;;3.90;;
55603;SDS011;41468;48.838;9.330;2024-01-30T12:35:15;5.77;;;3.60;;
55603;SDS011;41468;48.838;9.330;2024-01-30T12:37:44;3.97;;;3.57;;
55603;SDS011;41468;48.838;9.330;2024-01-30T12:40:12;4.20;;;3.40;;
55603;SDS011;41468;48.838;9.330;2024-01-30T12:42:41;6.17;;;3.20;;
55603;SDS011;41468;48.838;9.330;2024-01-30T12:45:18;6.57;;;5.10;;
55603;SDS011;41468;48.838;9.330;2024-01-30T12:47:49;5.90;;;3.77;;
55603;SDS011;41468;48.838;9.330;2024-01-30T12:50:16;4.77;;;3.60;;
55603;SDS011;41468;48.838;9.330;2024-01-30T12:52:44;5.50;;;4.70;;
55603;SDS011;41468;48.838;9.330;2024-01-30T12:55:15;9.73;;;6.63;;
55603;SDS011;41468;48.838;9.330;2024-01-30T12:57:42;4.20;;;3.80;;
55603;SDS011;41468;48.838;9.330;2024-01-30T13:00:09;7.77;;;6.10;;
55603;SDS011;41468;48.838;9.330;2024-01-30T13:02:42;6.67;;;5.80;;
55603;SDS011;41468;48.838;9.330;2024-01-30T13:05:11;9.53;;;6.30;;
55603;SDS011;41468;48.838;9.330;2024-01-30T13:07:38;6.93;;;5.87;;
55603;SDS011;41468;48.838;9.330;2024-01-30T13:10:05;10.50;;;6.67;;
55603;SDS011;41468;48.838;9.330;2024-01-30T13:12:32;9.03;;;6.53;;
55603;SDS011;41468;48.838;9.330;2024-01-30T13:15:00;8.57;;;6.90;;
55603;SDS011;41468;48.838;9.330;2024-01-30T13:17:27;7.20;;;6.50;;
55603;SDS011;41468;48.838;9.330;2024-01-30T13:19:55;8.47;;;6.60;;
55603;SDS011;41468;48.838;9.330;2024-01-30T13:22:27;9.50;;;7.00;;
55603;SDS011;41468;48.838;9.330;2024-01-30T13:24:54;7.33;;;6.50;;
55603;SDS011;41468;48.838;9.330;2024-01-30T13:27:21;8.13;;;6.77;;
55603;SDS011;41468;48.838;9.330;2024-01-30T13:29:48;11.00;;;7.50;;
55603;SDS011;41468;48.838;9.330;2024-01-30T13:32:15;9.53;;;7.53;;
55603;SDS011;41468;48.838;9.330;2024-01-30T13:34:42;9.13;;;7.33;;
55603;SDS011;41468;48.838;9.330;2024-01-30T13:37:09;8.30;;;7.40;;
55603;SDS011;41468;48.838;9.330;2024-01-30T13:39:37;10.00;;;7.07;;
55603;SDS011;41468;48.838;9.330;2024-01-30T13:42:05;8.77;;;6.07;;
55603;SDS011;41468;48.838;9.330;2024-01-30T13:44:32;9.73;;;6.17;;
55603;SDS011;41468;48.838;9.330;2024-01-30T13:47:03;8.17;;;6.60;;
55603;SDS011;41468;48.838;9.330;2024-01-30T13:49:30;6.23;;;5.63;;
55603;SDS011;41468;48.838;9.330;2024-01-30T13:51:57;9.07;;;6.20;;
55603;SDS011;41468;48.838;9.330;2024-01-30T13:54:25;9.40;;;5.63;;
55603;SDS011;41468;48.838;9.330;2024-01-30T13:56:52;8.70;;;6.40;;
55603;SDS011;41468;48.838;9.330;2024-01-30T13:59:19;8.47;;;6.23;;
55603;SDS011;41468;48.838;9.330;2024-01-30T14:01:50;9.47;;;5.40;;
55603;SDS011;41468;48.838;9.330;2024-01-30T14:04:18;9.80;;;6.00;;
55603;SDS011;41468;48.838;9.330;2024-01-30T14:06:45;7.17;;;5.77;;
55603;SDS011;41468;48.838;9.330;2024-01-30T14:09:22;10.93;;;6.30;;
55603;SDS011;41468;48.838;9.330;2024-01-30T14:11:49;8.40;;;6.13;;
55603;SDS011;41468;48.838;9.330;2024-01-30T14:14:15;9.80;;;6.70;;
55603;SDS011;41468;48.838;9.330;2024-01-30T14:16:42;13.93;;;7.13;;
55603;SDS011;41468;48.838;9.330;2024-01-30T14:19:09;11.30;;;7.17;;
55603;SDS011;41468;48.838;9.330;2024-01-30T14:21:36;10.83;;;7.70;;
55603;SDS011;41468;48.838;9.330;2024-01-30T14:24:03;9.87;;;7.53;;
55603;SDS011;41468;48.838;9.330;2024-01-30T14:26:30;11.57;;;7.17;;
55603;SDS011;41468;48.838;9.330;2024-01-30T14:28:57;11.37;;;7.40;;
55603;SDS011;41468;48.838;9.330;2024-01-30T14:31:24;11.93;;;7.53;;
55603;SDS011;41468;48.838;9.330;2024-01-30T14:33:51;9.83;;;7.30;;
55603;SDS011;41468;48.838;9.330;2024-01-30T14:36:18;10.17;;;7.57;;
55603;SDS011;41468;48.838;9.330;2024-01-30T14:38:46;11.73;;;7.20;;
55603;SDS011;41468;48.838;9.330;2024-01-30T14:41:13;8.87;;;7.50;;
55603;SDS011;41468;48.838;9.330;2024-01-30T14:43:45;14.80;;;7.40;;
55603;SDS011;41468;48.838;9.330;2024-01-30T14:46:12;13.03;;;7.27;;
55603;SDS011;41468;48.838;9.330;2024-01-30T14:48:39;8.40;;;7.07;;
55603;SDS011;41468;48.838;9.330;2024-01-30T14:51:06;16.93;;;7.70;;
55603;SDS011;41468;48.838;9.330;2024-01-30T14:53:33;9.80;;;8.00;;
55603;SDS011;41468;48.838;9.330;2024-01-30T14:55:59;13.80;;;7.73;;